Time;durP1;ratioP1;P1;durP2;ratioP2;P2;SDS_P1;SDS_P2;PMS_P1;PMS_P2;Temp;Humidity;BMP_temperature;BMP_pressure;BME280_temperature;BME280_humidity;BME280_pressure;Samples;Min_cycle;Max_cycle;Signal;HPM_P1;HPM_P2
2022/06/13 00:01:23;;;;;;;22.58;7.30;;;13.20;94.20;;;;;;6225210;22;20458;-79
2022/06/13 00:03:50;;;;;;;21.73;6.82;;;13.30;94.30;;;;;;6250569;22;20008;-78
2022/06/13 00:06:17;;;;;;;26.98;6.95;;;13.20;94.30;;;;;;6225215;22;20015;-78
2022/06/13 00:08:42;;;;;;;26.30;7.00;;;13.30;94.20;;;;;;6225061;22;20091;-78
2022/06/13 00:11:11;;;;;;;20.52;7.07;;;13.20;94.50;;;;;;6225310;22;20051;-78
2022/06/13 00:13:38;;;;;;;25.52;6.75;;;13.20;94.20;;;;;;6250286;22;20434;-79
2022/06/13 00:16:04;;;;;;;22.10;6.78;;;13.20;94.30;;;;;;6225209;22;20073;-79
2022/06/13 00:18:30;;;;;;;18.65;6.20;;;13.20;94.30;;;;;;6225142;22;20042;-78
2022/06/13 00:20:56;;;;;;;17.73;6.22;;;13.20;94.10;;;;;;6250053;22;20004;-79
2022/06/13 00:23:22;;;;;;;15.18;5.75;;;13.20;93.90;;;;;;6224641;22;20082;-78
2022/06/13 00:25:48;;;;;;;14.70;4.93;;;13.20;93.70;;;;;;6224642;22;20299;-78
2022/06/13 00:28:17;;;;;;;12.68;4.88;;;13.20;93.30;;;;;;6224659;22;20014;-78
2022/06/13 00:30:42;;;;;;;18.60;6.00;;;13.30;93.10;;;;;;6224714;22;20008;-78
2022/06/13 00:33:08;;;;;;;14.80;4.88;;;13.30;92.90;;;;;;6250142;22;20051;-78
2022/06/13 00:35:34;;;;;;;16.98;5.07;;;13.30;92.90;;;;;;6224846;22;20388;-78
2022/06/13 00:38:00;;;;;;;16.52;4.57;;;13.30;92.80;;;;;;6250422;22;20068;-78
2022/06/13 00:40:26;;;;;;;11.40;3.70;;;13.30;92.50;;;;;;6224568;22;20438;-77
2022/06/13 00:42:51;;;;;;;14.65;4.40;;;13.20;92.30;;;;;;6224753;22;20016;-78
2022/06/13 00:45:24;;;;;;;10.32;3.75;;;13.30;92.00;;;;;;6250385;22;20082;-78
2022/06/13 00:47:53;;;;;;;15.18;3.75;;;13.30;91.80;;;;;;6224347;22;20016;-78
2022/06/13 00:50:28;;;;;;;15.88;3.70;;;13.30;91.80;;;;;;6250317;22;20027;-79
2022/06/13 00:53:06;;;;;;;16.63;4.15;;;13.20;91.80;;;;;;6224718;22;20430;-79
2022/06/13 00:55:46;;;;;;;10.57;3.15;;;13.30;91.50;;;;;;6250098;22;20089;-78
2022/06/13 00:58:13;;;;;;;10.73;3.38;;;13.30;90.80;;;;;;6225002;22;20047;-78
2022/06/13 01:00:40;;;;;;;;;;;13.30;91.10;;;;;;6225335;22;20019;-78
2022/06/13 01:03:06;;;;;;;14.30;3.45;;;13.30;90.80;;;;;;6250000;22;19918;-78
2022/06/13 01:05:36;;;;;;;10.77;3.55;;;13.30;90.80;;;;;;6224744;22;20018;-78
2022/06/13 01:08:05;;;;;;;11.98;3.20;;;13.30;90.70;;;;;;6250402;22;20018;-78
2022/06/13 01:13:15;;;;;;;8.38;3.13;;;13.40;90.60;;;;;;6249983;22;20069;-78
2022/06/13 01:16:31;;;;;;;13.55;3.70;;;13.40;90.50;;;;;;6224747;22;20012;-78
2022/06/13 01:19:15;;;;;;;14.55;3.65;;;13.40;90.50;;;;;;6099503;23;20018;-77
2022/06/13 01:21:47;;;;;;;13.73;3.22;;;13.40;90.50;;;;;;6224701;22;20047;-78
2022/06/13 01:24:43;;;;;;;13.98;4.07;;;13.50;90.30;;;;;;6224866;22;20012;-78
2022/06/13 01:27:17;;;;;;;14.40;3.63;;;13.50;90.30;;;;;;6249494;22;20099;-77
2022/06/13 01:30:21;;;;;;;11.93;3.55;;;13.40;90.20;;;;;;6224582;22;20015;-78
2022/06/13 01:32:54;;;;;;;11.20;3.70;;;13.50;90.10;;;;;;6201792;22;20030;-77
2022/06/13 01:35:20;;;;;;;14.35;3.30;;;13.50;90.10;;;;;;6224671;22;20015;-78
2022/06/13 01:38:04;;;;;;;15.73;3.77;;;13.50;90.10;;;;;;6224568;22;20057;-78
2022/06/13 01:40:48;;;;;;;10.93;3.40;;;13.50;89.80;;;;;;6249781;22;20242;-79
2022/06/13 01:43:23;;;;;;;12.95;3.70;;;13.50;89.50;;;;;;6224822;22;20008;-78
2022/06/13 01:46:14;;;;;;;12.77;3.25;;;13.60;89.90;;;;;;6224662;22;20019;-78
2022/06/13 01:48:49;;;;;;;13.77;3.30;;;13.60;89.50;;;;;;6259274;22;20071;-78
2022/06/13 01:51:39;;;;;;;11.80;3.05;;;13.60;89.00;;;;;;6280766;22;20000;-78
2022/06/13 01:54:24;;;;;;;16.27;3.10;;;13.60;89.00;;;;;;6280867;22;20004;-78
2022/06/13 01:57:29;;;;;;;12.68;4.00;;;13.60;89.00;;;;;;6280553;22;20034;-79
2022/06/13 02:00:03;;;;;;;14.18;3.42;;;13.60;89.30;;;;;;6246809;22;20345;-79
2022/06/13 02:02:45;;;;;;;10.63;3.47;;;13.70;89.40;;;;;;6251770;22;20023;-77
2022/06/13 02:05:17;;;;;;;14.63;3.63;;;13.60;89.90;;;;;;6251773;22;20012;-79
2022/06/13 02:07:51;;;;;;;11.57;3.67;;;13.70;89.80;;;;;;6226499;22;20011;-78
2022/06/13 02:10:21;;;;;;;12.20;3.13;;;13.70;90.00;;;;;;6251898;22;20102;-78
2022/06/13 02:12:54;;;;;;;13.15;2.92;;;13.70;89.90;;;;;;6251548;22;20008;-78
2022/06/13 02:15:31;;;;;;;14.00;3.08;;;13.70;90.00;;;;;;6251749;22;20012;-78
2022/06/13 02:18:01;;;;;;;11.88;3.00;;;13.70;90.10;;;;;;6226387;22;20016;-78
2022/06/13 02:20:35;;;;;;;13.50;3.45;;;13.70;90.20;;;;;;6251540;22;20299;-78
2022/06/13 02:23:06;;;;;;;14.13;3.53;;;13.70;90.10;;;;;;6226022;22;20090;-77
2022/06/13 02:25:45;;;;;;;11.05;3.13;;;13.70;90.20;;;;;;6226315;22;20012;-79
2022/06/13 02:28:23;;;;;;;8.88;2.90;;;13.70;90.40;;;;;;6226107;22;20291;-80
2022/06/13 02:30:57;;;;;;;16.73;3.83;;;13.70;90.40;;;;;;6251513;22;20023;-77
2022/06/13 02:33:30;;;;;;;11.95;3.40;;;13.70;90.50;;;;;;6226370;22;20012;-77
2022/06/13 02:36:04;;;;;;;13.07;3.75;;;13.70;90.60;;;;;;6225832;22;20011;-78
2022/06/13 02:38:42;;;;;;;13.48;3.65;;;13.70;90.60;;;;;;6251063;22;20039;-77
2022/06/13 02:41:12;;;;;;;11.07;2.97;;;13.70;90.90;;;;;;6226194;22;20030;-78
2022/06/13 02:43:52;;;;;;;8.63;2.90;;;13.70;90.60;;;;;;6225618;22;20163;-77
2022/06/13 02:46:27;;;;;;;8.18;2.80;;;13.70;90.80;;;;;;6225639;22;20011;-77
2022/06/13 02:49:11;;;;;;;8.77;2.65;;;13.60;90.50;;;;;;6225911;22;20015;-78
2022/06/13 02:52:01;;;;;;;10.75;2.58;;;13.70;90.90;;;;;;6225892;22;20430;-78
2022/06/13 02:54:36;;;;;;;10.98;2.30;;;13.60;90.70;;;;;;6225431;22;20012;-77
2022/06/13 02:57:23;;;;;;;7.32;2.08;;;13.60;90.70;;;;;;6251221;22;20007;-77
2022/06/13 03:00:36;;;;;;;8.23;2.30;;;13.50;90.70;;;;;;6251232;22;20430;-77
2022/06/13 03:03:24;;;;;;;11.35;3.13;;;13.50;91.10;;;;;;6184447;22;20065;-78
2022/06/13 03:06:01;;;;;;;10.85;2.35;;;13.40;91.20;;;;;;6250962;22;20012;-77
2022/06/13 03:08:55;;;;;;;10.07;2.40;;;13.40;91.20;;;;;;6225469;22;20008;-77
2022/06/13 03:11:32;;;;;;;11.70;2.95;;;13.40;91.70;;;;;;6250698;22;20304;-78
2022/06/13 03:14:12;;;;;;;8.95;2.95;;;13.30;91.50;;;;;;6250942;22;20007;-79
2022/06/13 03:17:02;;;;;;;10.43;2.38;;;13.30;91.60;;;;;;6250750;22;20225;-79
2022/06/13 03:19:56;;;;;;;10.70;2.17;;;13.20;92.10;;;;;;6225804;22;20026;-77
2022/06/13 03:22:45;;;;;;;9.85;2.45;;;13.20;91.80;;;;;;6225734;22;20090;-78
2022/06/13 03:25:17;;;;;;;9.30;2.17;;;13.30;91.90;;;;;;6277875;22;20019;-77
2022/06/13 03:27:49;;;;;;;8.88;2.78;;;13.20;91.60;;;;;;6225448;22;20410;-77
2022/06/13 03:30:19;;;;;;;10.95;2.60;;;13.30;92.00;;;;;;6250741;22;20094;-78
2022/06/13 03:35:52;;;;;;;16.52;3.25;;;13.20;91.80;;;;;;6250760;22;20449;-79
2022/06/13 03:38:21;;;;;;;11.98;2.72;;;13.30;91.70;;;;;;6250852;22;20015;-79
2022/06/13 03:40:52;;;;;;;11.35;2.92;;;13.30;91.80;;;;;;6250805;22;20012;-78
2022/06/13 03:43:21;;;;;;;11.20;2.35;;;13.30;91.70;;;;;;6225437;22;20064;-77
2022/06/13 03:45:55;;;;;;;12.60;3.30;;;13.30;91.90;;;;;;6224854;22;20012;-79
2022/06/13 03:48:39;;;;;;;12.70;3.22;;;13.30;91.90;;;;;;6250399;22;20015;-77
2022/06/13 03:51:19;;;;;;;8.02;2.70;;;13.30;92.00;;;;;;6225003;22;20010;-77
2022/06/13 03:53:49;;;;;;;12.18;2.83;;;13.30;92.20;;;;;;6250907;22;20317;-78
2022/06/13 03:56:28;;;;;;;12.60;3.20;;;13.30;92.00;;;;;;6250758;22;20074;-77
2022/06/13 03:59:04;;;;;;;15.00;3.05;;;13.30;92.30;;;;;;6250631;22;20488;-78
2022/06/13 04:01:39;;;;;;;10.73;3.10;;;13.30;92.40;;;;;;6225767;22;20011;-78
2022/06/13 04:04:10;;;;;;;11.10;3.47;;;13.30;92.60;;;;;;6225266;22;20423;-81
2022/06/13 04:06:41;;;;;;;8.68;2.85;;;13.40;93.20;;;;;;6225444;22;20019;-77
2022/06/13 04:09:10;;;;;;;18.77;3.33;;;13.30;93.80;;;;;;6225039;22;20008;-75
2022/06/13 04:12:12;;;;;;;11.82;2.58;;;13.10;95.40;;;;;;6277397;22;20016;-76
2022/06/13 04:15:10;;;;;;;7.40;1.85;;;13.00;95.40;;;;;;6225108;22;20011;-76
2022/06/13 04:17:54;;;;;;;6.13;1.60;;;12.80;95.60;;;;;;6225123;22;20012;-78
2022/06/13 04:20:49;;;;;;;7.38;1.83;;;12.70;95.40;;;;;;6225540;22;20307;-77
2022/06/13 04:23:23;;;;;;;4.97;2.05;;;12.60;95.20;;;;;;6198933;22;20016;-77
2022/06/13 04:26:22;;;;;;;7.05;1.83;;;12.60;96.00;;;;;;6225207;22;20027;-79
2022/06/13 04:29:00;;;;;;;8.82;2.08;;;12.50;95.60;;;;;;6250388;22;20011;-77
2022/06/13 04:31:29;;;;;;;8.57;2.58;;;12.40;95.80;;;;;;6225044;22;20015;-77
2022/06/13 04:34:12;;;;;;;12.20;2.22;;;12.50;96.50;;;;;;6224882;22;20012;-78
2022/06/13 04:36:38;;;;;;;14.30;2.47;;;12.40;96.20;;;;;;6250612;22;20347;-77
2022/06/13 04:39:07;;;;;;;13.45;2.35;;;12.60;96.20;;;;;;6225073;22;20426;-77
2022/06/13 04:41:37;;;;;;;13.85;3.35;;;12.70;96.10;;;;;;6250157;22;20043;-77
2022/06/13 04:44:05;;;;;;;13.35;3.00;;;12.90;96.10;;;;;;6250131;22;20069;-77
2022/06/13 04:46:34;;;;;;;18.83;3.17;;;12.90;96.50;;;;;;6224403;22;20061;-77
2022/06/13 04:49:07;;;;;;;12.07;3.35;;;13.00;96.30;;;;;;6249752;22;20012;-77
2022/06/13 04:51:39;;;;;;;14.25;3.25;;;13.20;96.50;;;;;;6249807;22;20007;-78
2022/06/13 04:54:11;;;;;;;19.00;3.78;;;13.30;96.20;;;;;;6250066;22;20011;-78
2022/06/13 04:56:37;;;;;;;13.45;3.00;;;13.50;96.50;;;;;;6224568;22;20011;-77
2022/06/13 04:59:04;;;;;;;;;;;13.70;95.90;;;;;;6250565;22;20010;-79
2022/06/13 05:01:41;;;;;;;10.70;2.67;;;13.80;96.20;;;;;;6224694;22;19934;-77
2022/06/13 05:04:11;;;;;;;12.82;2.20;;;13.90;95.80;;;;;;6249753;22;20031;-77
2022/06/13 05:06:45;;;;;;;10.00;2.20;;;14.10;95.50;;;;;;6249713;22;20011;-77
2022/06/13 05:09:10;;;;;;;10.15;1.80;;;14.50;95.50;;;;;;6249503;22;20446;-78
2022/06/13 05:12:06;;;;;;;9.57;2.10;;;14.90;95.00;;;;;;6224570;22;20083;-77
2022/06/13 05:14:46;;;;;;;10.02;2.25;;;15.40;94.00;;;;;;6249619;22;20007;-78
2022/06/13 05:17:15;;;;;;;10.73;2.40;;;15.60;93.10;;;;;;6224391;22;20012;-77
2022/06/13 05:19:49;;;;;;;8.55;1.70;;;15.70;93.00;;;;;;6249932;22;20426;-78
2022/06/13 05:22:30;;;;;;;12.07;2.33;;;15.50;91.70;;;;;;6250071;22;20380;-77
2022/06/13 05:25:09;;;;;;;6.82;1.92;;;15.40;92.20;;;;;;6226641;22;20303;-77
2022/06/13 05:27:35;;;;;;;11.40;1.92;;;15.30;92.70;;;;;;6251662;22;20019;-78
2022/06/13 05:30:01;;;;;;;6.38;1.48;;;15.10;93.20;;;;;;6226602;22;19999;-79
2022/06/13 05:32:26;;;;;;;10.60;1.90;;;14.90;93.40;;;;;;6251708;22;20054;-79
2022/06/13 05:34:53;;;;;;;9.57;2.15;;;14.70;93.50;;;;;;6251664;22;20010;-78
2022/06/13 05:37:19;;;;;;;9.27;2.38;;;14.60;93.80;;;;;;6226241;22;20012;-79
2022/06/13 05:39:45;;;;;;;10.63;2.53;;;14.50;93.90;;;;;;6252127;22;20061;-80
2022/06/13 05:42:12;;;;;;;;;;;14.40;94.40;;;;;;6226292;22;20077;-77
2022/06/13 05:44:38;;;;;;;12.90;2.63;;;14.50;94.60;;;;;;6226900;22;20408;-78
2022/06/13 05:47:04;;;;;;;13.18;2.72;;;14.50;94.80;;;;;;6251232;22;20330;-76
2022/06/13 05:49:30;;;;;;;11.25;2.55;;;14.70;94.60;;;;;;6251519;22;20018;-77
2022/06/13 05:51:56;;;;;;;11.63;3.10;;;14.80;95.40;;;;;;6225990;22;20004;-78
2022/06/13 05:54:22;;;;;;;8.35;2.20;;;14.90;94.60;;;;;;6251501;22;20326;-79
2022/06/13 05:56:47;;;;;;;13.68;2.13;;;15.00;94.40;;;;;;6251458;22;20015;-77
2022/06/13 05:59:13;;;;;;;7.30;1.92;;;15.00;93.70;;;;;;6226246;22;20275;-78
2022/06/13 06:01:39;;;;;;;9.85;2.15;;;15.00;93.50;;;;;;6226680;22;20382;-78
2022/06/13 06:04:05;;;;;;;11.60;1.92;;;14.90;93.50;;;;;;6226394;22;20011;-76
2022/06/13 06:06:32;;;;;;;8.40;1.90;;;14.80;93.20;;;;;;6251530;22;20446;-74
2022/06/13 06:08:59;;;;;;;5.88;1.70;;;14.80;93.10;;;;;;6251461;22;20019;-71
2022/06/13 06:11:27;;;;;;;8.43;1.58;;;14.70;93.10;;;;;;6251736;22;20016;-73
2022/06/13 06:13:53;;;;;;;13.45;2.00;;;14.80;93.30;;;;;;6251330;22;20421;-72
2022/06/13 06:16:21;;;;;;;11.88;1.83;;;14.70;93.30;;;;;;6225914;22;20015;-76
2022/06/13 06:18:47;;;;;;;7.10;1.70;;;14.70;93.00;;;;;;6250686;22;20026;-74
2022/06/13 06:21:13;;;;;;;;;;;15.00;93.60;;;;;;6225548;22;20015;-74
2022/06/13 06:31:27;;;;;;;11.85;1.65;;;16.10;91.30;;;;;;6125242;23;20037;-79
2022/06/13 06:38:04;;;;;;;;;;;;;;;;;;;;;
2022/06/13 06:40:30;;;;;;;12.73;2.10;;;16.80;87.80;;;;;;6098115;23;20289;-80
2022/06/13 06:52:30;;;;;;;7.68;2.00;;;16.70;87.90;;;;;;6252862;22;20674;-77
2022/06/13 07:09:32;;;;;;;10.45;1.73;;;17.10;84.80;;;;;;6276837;22;20066;-80
2022/06/13 07:12:35;;;;;;;13.18;1.75;;;17.50;83.70;;;;;;6224346;22;20015;-73
2022/06/13 07:15:01;;;;;;;14.00;1.70;;;17.50;80.80;;;;;;6224982;22;20007;-76
2022/06/13 07:17:29;;;;;;;7.28;1.90;;;17.60;83.50;;;;;;6249636;22;20015;-77
2022/06/13 07:36:34;;;;;;;16.70;2.15;;;18.10;80.40;;;;;;6276819;22;20015;-77
2022/06/13 07:38:59;;;;;;;8.30;2.00;;;18.20;78.30;;;;;;6254054;22;20071;-71
2022/06/13 07:41:28;;;;;;;11.95;2.55;;;17.90;77.40;;;;;;6277977;22;20004;-75
2022/06/13 07:43:56;;;;;;;8.82;2.20;;;17.80;78.70;;;;;;6224623;22;20020;-74
2022/06/13 07:46:28;;;;;;;11.20;2.65;;;18.00;79.70;;;;;;6222633;22;20011;-75
2022/06/13 07:52:34;;;;;;;10.43;1.98;;;18.10;78.80;;;;;;6246989;22;20027;-74
2022/06/13 07:55:15;;;;;;;13.95;2.50;;;18.20;77.70;;;;;;6224057;22;20519;-74
2022/06/13 07:57:45;;;;;;;11.52;2.40;;;18.20;76.90;;;;;;6249174;22;20008;-74
2022/06/13 08:00:25;;;;;;;13.38;2.10;;;18.50;77.80;;;;;;6249049;22;20008;-75
2022/06/13 08:03:15;;;;;;;13.27;2.45;;;18.50;77.10;;;;;;6223792;22;20069;-75
2022/06/13 08:05:43;;;;;;;13.77;2.85;;;18.00;76.10;;;;;;6226049;22;20011;-75
2022/06/13 08:08:08;;;;;;;13.05;1.90;;;17.60;76.30;;;;;;6224019;22;20008;-75
2022/06/13 08:10:43;;;;;;;15.02;2.42;;;17.40;77.70;;;;;;6250119;22;20007;-75
2022/06/13 08:13:17;;;;;;;11.05;1.88;;;17.20;79.00;;;;;;6225663;22;20011;-73
2022/06/13 08:16:29;;;;;;;7.88;2.28;;;17.70;78.90;;;;;;6224675;22;20178;-73
2022/06/13 08:19:05;;;;;;;12.60;2.15;;;17.90;76.60;;;;;;6276777;22;20022;-74
2022/06/13 08:21:40;;;;;;;9.55;2.00;;;18.00;77.00;;;;;;6224515;22;20499;-71
2022/06/13 08:24:38;;;;;;;12.95;2.28;;;18.10;76.80;;;;;;6224971;22;20502;-70
2022/06/13 08:27:04;;;;;;;9.90;1.80;;;18.10;76.50;;;;;;6166021;22;20012;-69
2022/06/13 08:29:30;;;;;;;10.30;1.92;;;18.10;75.30;;;;;;6248274;22;20012;-68
2022/06/13 08:31:56;;;;;;;8.18;2.05;;;18.40;75.90;;;;;;6223702;22;20015;-68
2022/06/13 08:34:22;;;;;;;10.80;2.17;;;18.60;74.50;;;;;;6248604;22;20012;-69
2022/06/13 08:36:48;;;;;;;14.30;2.35;;;18.80;75.70;;;;;;6223400;22;20016;-70
2022/06/13 08:39:14;;;;;;;10.30;2.03;;;18.90;73.90;;;;;;6249119;22;20037;-69
2022/06/13 08:41:50;;;;;;;13.85;2.47;;;18.50;73.10;;;;;;6249006;22;20061;-68
2022/06/13 08:44:25;;;;;;;12.57;2.10;;;18.40;74.80;;;;;;6223002;22;20016;-69
2022/06/13 08:47:20;;;;;;;9.43;1.90;;;18.40;74.60;;;;;;6275345;22;20598;-69
2022/06/13 08:50:08;;;;;;;14.10;2.58;;;18.70;76.20;;;;;;6248949;22;20011;-68
2022/06/13 08:52:54;;;;;;;15.88;3.05;;;19.00;74.20;;;;;;6248634;22;20104;-68
2022/06/13 08:55:34;;;;;;;8.55;1.80;;;19.30;73.30;;;;;;6250332;22;20030;-67
2022/06/13 08:58:09;;;;;;;8.10;1.95;;;19.10;70.50;;;;;;6250061;22;20086;-67
2022/06/13 09:00:38;;;;;;;9.38;1.90;;;19.10;72.60;;;;;;6250196;22;20023;-67
2022/06/13 09:03:30;;;;;;;12.07;2.10;;;19.30;72.90;;;;;;6249961;22;20008;-70
2022/06/13 09:06:11;;;;;;;12.80;2.72;;;18.90;71.60;;;;;;6224656;22;20055;-70
2022/06/13 09:08:40;;;;;;;15.98;2.00;;;18.50;72.30;;;;;;6224493;22;20011;-70
2022/06/13 09:15:20;;;;;;;8.70;2.00;;;18.50;73.80;;;;;;6158087;23;20079;-71
2022/06/13 09:28:06;;;;;;;12.98;2.30;;;18.90;75.10;;;;;;6238499;22;20024;-68
2022/06/13 09:30:36;;;;;;;14.65;2.65;;;18.60;77.60;;;;;;6249927;22;20085;-69
2022/06/13 09:33:21;;;;;;;9.45;2.03;;;18.30;77.00;;;;;;6249637;22;20332;-70
2022/06/13 09:35:57;;;;;;;14.48;2.60;;;18.30;78.10;;;;;;6213061;23;20020;-70
2022/06/13 09:38:34;;;;;;;13.30;2.42;;;18.40;76.80;;;;;;6213366;23;20095;-70
2022/06/13 09:41:02;;;;;;;;;;;18.50;76.90;;;;;;6213572;23;20016;-69
2022/06/13 09:43:58;;;;;;;10.65;2.15;;;18.40;77.80;;;;;;6162849;23;19998;-69
2022/06/13 09:46:31;;;;;;;16.95;3.20;;;18.20;76.10;;;;;;6187955;23;20017;-71
2022/06/13 09:49:38;;;;;;;28.95;3.60;;;17.80;76.10;;;;;;6187736;23;20430;-71
2022/06/13 09:52:32;;;;;;;17.02;2.33;;;17.70;76.90;;;;;;6187669;23;20447;-71
2022/06/13 09:55:06;;;;;;;14.15;2.17;;;17.70;76.80;;;;;;6187564;23;20020;-71
2022/06/13 09:57:40;;;;;;;13.20;2.40;;;17.60;77.40;;;;;;6212778;23;20351;-71
2022/06/13 10:23:25;;;;;;;15.98;2.53;;;18.20;76.70;;;;;;6154545;23;20068;-73
2022/06/13 10:26:29;;;;;;;12.85;2.42;;;18.60;75.40;;;;;;6189883;22;20081;-75
2022/06/13 10:29:31;;;;;;;11.00;2.10;;;18.30;74.20;;;;;;6220974;23;20027;-75
2022/06/13 10:32:34;;;;;;;10.05;2.22;;;18.60;75.50;;;;;;6246180;23;20013;-74
2022/06/13 10:35:05;;;;;;;14.60;2.58;;;18.60;74.40;;;;;;6245603;23;20019;-75
2022/06/13 10:37:40;;;;;;;15.68;2.38;;;19.00;75.90;;;;;;6220639;23;20044;-74
2022/06/13 10:40:07;;;;;;;15.82;2.67;;;18.80;73.00;;;;;;6220904;23;20066;-74
2022/06/13 10:42:38;;;;;;;12.25;2.60;;;18.80;74.70;;;;;;6220645;23;20024;-73
2022/06/13 10:45:07;;;;;;;11.95;2.40;;;18.70;72.80;;;;;;6220687;23;20016;-74
2022/06/13 10:47:39;;;;;;;15.70;2.58;;;18.90;74.30;;;;;;6220190;23;20048;-74
2022/06/13 10:50:16;;;;;;;10.00;2.30;;;19.10;74.40;;;;;;6245649;23;20020;-73
2022/06/13 10:52:49;;;;;;;10.80;2.40;;;19.20;73.20;;;;;;6245721;23;20016;-76
2022/06/13 10:55:26;;;;;;;12.73;2.53;;;18.90;74.40;;;;;;6245651;23;20102;-74
2022/06/13 10:58:12;;;;;;;12.68;2.30;;;18.70;74.10;;;;;;6247721;23;20107;-74
2022/06/13 11:00:41;;;;;;;10.07;1.77;;;18.60;74.50;;;;;;6247802;22;20335;-73
2022/06/13 11:03:39;;;;;;;12.80;2.42;;;18.40;74.40;;;;;;6220151;23;20321;-74
2022/06/13 11:06:14;;;;;;;15.32;2.60;;;18.10;73.90;;;;;;6220357;23;20435;-74
2022/06/13 11:08:43;;;;;;;14.15;2.47;;;18.10;75.30;;;;;;6220768;23;20024;-74
2022/06/13 11:11:15;;;;;;;14.10;2.55;;;18.40;75.50;;;;;;6245829;23;20366;-73
2022/06/13 11:13:43;;;;;;;12.63;2.80;;;18.90;74.80;;;;;;6220639;23;20054;-74
2022/06/13 11:22:37;;;;;;;13.60;2.60;;;19.30;74.90;;;;;;6245015;23;20022;-74
2022/06/13 11:25:26;;;;;;;11.13;2.13;;;19.50;72.70;;;;;;6220541;23;20078;-74
2022/06/13 11:28:15;;;;;;;12.35;2.60;;;19.80;73.50;;;;;;6245513;22;20031;-75
2022/06/13 11:30:45;;;;;;;8.38;2.05;;;19.60;71.90;;;;;;6224861;22;20019;-74
2022/06/13 11:33:21;;;;;;;8.95;1.83;;;19.40;70.60;;;;;;6250251;22;20011;-74
2022/06/13 11:35:54;;;;;;;14.02;2.15;;;19.30;70.60;;;;;;6250709;22;20023;-76
2022/06/13 11:38:27;;;;;;;16.70;3.08;;;19.10;71.50;;;;;;6225591;22;20007;-76
2022/06/13 11:41:13;;;;;;;12.20;2.20;;;18.80;74.90;;;;;;6225002;22;20460;-77
2022/06/13 11:44:00;;;;;;;10.45;2.30;;;18.90;73.20;;;;;;6225089;22;20023;-78
2022/06/13 11:46:51;;;;;;;11.60;2.50;;;18.80;73.70;;;;;;6228158;22;20346;-77
2022/06/13 11:49:17;;;;;;;11.40;2.17;;;18.90;73.90;;;;;;6252570;22;20015;-77
2022/06/13 11:51:55;;;;;;;9.70;1.90;;;19.30;73.10;;;;;;6250732;22;20012;-74
2022/06/13 11:54:24;;;;;;;9.02;1.95;;;19.70;73.30;;;;;;6224806;22;20138;-77
2022/06/13 11:57:08;;;;;;;10.02;2.25;;;20.00;71.30;;;;;;6250488;22;20066;-77
2022/06/13 11:59:34;;;;;;;35.10;3.72;;;20.20;70.10;;;;;;6250151;22;20016;-77
2022/06/13 12:02:00;;;;;;;19.67;2.38;;;20.50;70.50;;;;;;6250700;22;20014;-77
2022/06/13 12:04:25;;;;;;;13.15;2.28;;;20.90;70.00;;;;;;6223838;22;20012;-78
2022/06/13 12:07:00;;;;;;;13.18;1.73;;;21.00;68.70;;;;;;6199859;22;20043;-75
2022/06/13 12:09:36;;;;;;;16.70;2.40;;;20.80;67.60;;;;;;6249231;22;20481;-78
2022/06/13 12:12:18;;;;;;;15.30;2.35;;;20.60;68.50;;;;;;6250106;22;20330;-78
2022/06/13 12:15:02;;;;;;;9.02;1.90;;;20.50;68.60;;;;;;6224415;22;20398;-79
2022/06/13 12:18:06;;;;;;;11.48;2.00;;;20.70;67.90;;;;;;6247862;22;20018;-79
2022/06/13 12:20:55;;;;;;;10.38;1.70;;;21.00;68.00;;;;;;6209413;22;20086;-77
2022/06/13 12:27:47;;;;;;;7.55;1.92;;;20.90;65.00;;;;;;6228095;22;20022;-78
2022/06/13 12:30:47;;;;;;;;;;;20.80;65.70;;;;;;6195355;23;20454;-78
2022/06/13 12:34:11;;;;;;;11.63;2.15;;;20.50;67.40;;;;;;6194872;23;19980;-77
2022/06/13 12:36:51;;;;;;;13.05;2.30;;;20.20;68.30;;;;;;6159177;23;20013;-78
2022/06/13 12:39:47;;;;;;;9.93;1.90;;;20.00;68.00;;;;;;6183649;23;20017;-78
2022/06/13 12:42:39;;;;;;;10.88;2.13;;;20.20;68.40;;;;;;6134717;23;20013;-79
2022/06/13 12:45:27;;;;;;;11.85;2.30;;;20.60;68.40;;;;;;6182733;23;20052;-77
2022/06/13 12:48:39;;;;;;;9.40;1.83;;;21.00;67.90;;;;;;6135275;23;20057;-79
2022/06/13 12:52:07;;;;;;;10.55;2.30;;;21.40;66.50;;;;;;6183283;23;20017;-79
2022/06/13 12:55:05;;;;;;;11.20;2.00;;;21.20;65.60;;;;;;6017312;23;20011;-78
2022/06/13 12:58:04;;;;;;;7.47;1.42;;;20.90;66.00;;;;;;6018314;23;20026;-77
2022/06/13 13:01:31;;;;;;;8.32;1.80;;;20.70;65.80;;;;;;6067852;23;20028;-79
2022/06/13 13:04:51;;;;;;;7.38;1.60;;;20.60;65.10;;;;;;6157243;23;20017;-77
2022/06/13 13:07:44;;;;;;;9.93;2.15;;;20.50;66.10;;;;;;6153100;23;20019;-77
2022/06/13 13:11:09;;;;;;;12.07;2.05;;;20.50;67.30;;;;;;6215010;23;20016;-77
2022/06/13 13:14:19;;;;;;;7.05;1.88;;;20.80;65.10;;;;;;6169400;23;20014;-78
2022/06/13 13:20:23;;;;;;;7.70;1.60;;;21.20;64.10;;;;;;6218990;23;20020;-78
2022/06/13 13:23:07;;;;;;;6.28;1.55;;;21.30;63.60;;;;;;6155448;23;20017;-77
2022/06/13 13:25:58;;;;;;;9.88;1.67;;;21.50;63.40;;;;;;6183488;23;20423;-74
2022/06/13 13:35:31;;;;;;;7.55;1.55;;;21.50;61.70;;;;;;6185083;23;20162;-73
2022/06/13 13:38:12;;;;;;;5.95;1.23;;;21.70;61.40;;;;;;6211648;23;20470;-77
2022/06/13 13:52:13;;;;;;;7.78;1.25;;;21.20;61.70;;;;;;6070197;23;20025;-74
2022/06/13 13:54:58;;;;;;;5.70;1.20;;;21.10;60.00;;;;;;6174717;23;20008;-74
2022/06/13 13:57:41;;;;;;;7.18;1.50;;;21.00;61.60;;;;;;6226793;22;20023;-74
2022/06/13 14:00:27;;;;;;;7.47;1.30;;;21.00;62.00;;;;;;6275510;22;20000;-75
2022/06/13 14:03:43;;;;;;;7.35;1.60;;;21.10;62.20;;;;;;6248207;22;20000;-75
2022/06/13 14:06:48;;;;;;;7.45;1.30;;;21.00;61.60;;;;;;6249624;23;20007;-73
2022/06/13 14:09:28;;;;;;;;;;;;;;;;;;;;;
2022/06/13 15:26:45;;;;;;;13.20;2.72;;;20.30;64.90;;;;;;6172664;22;20024;-72
2022/06/13 15:29:28;;;;;;;11.38;2.10;;;19.70;67.60;;;;;;6249147;22;20035;-75
2022/06/13 15:32:32;;;;;;;13.60;2.00;;;19.30;68.00;;;;;;6249259;22;20085;-78
2022/06/13 16:39:44;;;;;;;8.35;1.90;;;21.20;63.70;;;;;;6125536;23;20028;-81
2022/06/13 16:47:09;;;;;;;13.13;2.53;;;22.00;60.00;;;;;;5897020;24;20353;-80
2022/06/13 16:54:02;;;;;;;12.10;2.47;;;22.00;58.50;;;;;;5870087;24;20163;-76
2022/06/13 17:01:19;;;;;;;10.52;1.80;;;22.00;58.50;;;;;;5790367;24;20035;-75
2022/06/13 18:04:15;;;;;;;10.25;2.85;;;16.80;75.80;;;;;;6268737;22;20024;-77
2022/06/13 18:06:51;;;;;;;11.00;2.67;;;16.70;74.40;;;;;;6157502;23;20013;-77
2022/06/13 18:09:21;;;;;;;15.75;2.65;;;16.60;74.10;;;;;;6131380;23;20069;-72
2022/06/13 18:28:02;;;;;;;12.98;2.70;;;16.10;77.00;;;;;;6150515;23;20020;-75
2022/06/13 18:40:39;;;;;;;15.85;2.30;;;15.70;78.90;;;;;;6277120;22;20086;-83
2022/06/13 18:43:08;;;;;;;9.95;2.30;;;15.60;79.60;;;;;;6249552;22;20146;-70
2022/06/13 18:45:39;;;;;;;7.97;1.90;;;15.50;78.90;;;;;;6219373;23;20016;-78
2022/06/13 18:48:05;;;;;;;12.40;2.92;;;15.40;79.10;;;;;;6193724;23;20424;-73
2022/06/13 19:05:34;;;;;;;11.80;1.98;;;15.00;82.60;;;;;;6182397;22;20034;-84
2022/06/13 19:22:19;;;;;;;10.40;1.95;;;14.50;81.30;;;;;;6073433;23;20025;-70
2022/06/13 19:25:37;;;;;;;10.07;1.98;;;14.40;80.90;;;;;;6128101;23;20049;-76
2022/06/13 19:28:06;;;;;;;11.60;1.90;;;14.30;83.40;;;;;;5984232;23;20109;-73
2022/06/13 19:31:14;;;;;;;9.73;1.92;;;14.10;82.80;;;;;;6005968;23;20441;-75
2022/06/13 19:38:11;;;;;;;10.05;1.98;;;14.00;85.50;;;;;;6064102;23;20026;-73
2022/06/13 19:52:00;;;;;;;10.43;2.17;;;13.50;88.40;;;;;;6008773;23;20328;-75
2022/06/13 20:17:54;;;;;;;8.35;2.55;;;12.90;90.00;;;;;;5897774;24;20222;-72
2022/06/13 20:20:32;;;;;;;11.90;2.53;;;12.90;90.40;;;;;;5912537;23;20024;-74
2022/06/13 20:23:00;;;;;;;21.38;2.80;;;12.80;90.40;;;;;;6008916;23;20015;-78
2022/06/13 20:25:26;;;;;;;16.45;3.80;;;12.70;90.20;;;;;;5997057;23;20041;-75
2022/06/13 20:27:52;;;;;;;;;;;12.70;90.30;;;;;;6130512;23;20017;-74
2022/06/13 20:43:25;;;;;;;16.95;3.25;;;12.50;90.60;;;;;;6179491;22;20035;-74
2022/06/13 20:45:52;;;;;;;17.45;3.20;;;12.60;90.20;;;;;;6217236;22;20007;-75
2022/06/13 20:48:21;;;;;;;9.70;2.60;;;12.50;90.40;;;;;;6173001;23;20024;-74
2022/06/13 20:50:52;;;;;;;16.95;3.72;;;12.50;90.30;;;;;;6188971;23;20096;-73
2022/06/13 20:53:20;;;;;;;14.02;3.40;;;12.50;90.60;;;;;;6188701;23;20021;-75
2022/06/13 20:55:49;;;;;;;19.73;3.38;;;12.40;90.60;;;;;;6215103;23;20004;-72
2022/06/13 20:58:53;;;;;;;;;;;;;;;;;;;;;
2022/06/13 21:04:33;;;;;;;13.63;3.25;;;12.40;90.80;;;;;;6156399;23;20403;-78
2022/06/13 21:07:05;;;;;;;15.65;3.22;;;12.30;90.80;;;;;;6166063;23;20012;-82
2022/06/13 21:12:40;;;;;;;15.55;3.20;;;12.30;91.10;;;;;;6189052;23;20099;-81
2022/06/13 21:15:09;;;;;;;14.40;3.03;;;12.20;90.90;;;;;;6163584;23;20017;-82
2022/06/13 21:17:37;;;;;;;14.63;3.42;;;12.10;91.30;;;;;;6163931;23;20008;-83